createdAt,value
2018-08-10T00:00:00.022Z,796.81
2018-08-10T00:00:04.236Z,796.82
2018-08-10T00:00:08.435Z,796.8
2018-08-10T00:00:12.741Z,796.79
2018-08-10T00:00:16.931Z,796.77
2018-08-10T00:00:21.127Z,796.78
2018-08-10T00:00:25.318Z,796.78
2018-08-10T00:00:29.516Z,796.76
2018-08-10T00:00:33.603Z,796.75
2018-08-10T00:00:37.912Z,796.74
2018-08-10T00:00:42.000Z,796.71
2018-08-10T00:00:46.208Z,796.68
2018-08-10T00:00:50.510Z,796.69
2018-08-10T00:00:54.704Z,796.68
2018-08-10T00:00:59.000Z,796.64
2018-08-10T00:01:03.203Z,796.65
2018-08-10T00:01:07.518Z,796.62
2018-08-10T00:01:11.825Z,796.61
2018-08-10T00:01:16.129Z,796.59
2018-08-10T00:01:20.327Z,796.61
2018-08-10T00:01:24.630Z,796.58
2018-08-10T00:01:28.834Z,796.58
2018-08-10T00:01:33.035Z,796.57
2018-08-10T00:01:37.239Z,796.5
2018-08-10T00:01:41.438Z,796.51
2018-08-10T00:01:45.742Z,796.54
2018-08-10T00:01:49.836Z,796.5
2018-08-10T00:01:54.145Z,796.51
2018-08-10T00:01:58.444Z,796.48
2018-08-10T00:02:02.737Z,796.5
2018-08-10T00:02:06.613Z,796.46
2018-08-10T00:02:10.804Z,796.42
2018-08-10T00:02:15.009Z,796.39
2018-08-10T00:02:18.988Z,796.36
2018-08-10T00:02:23.183Z,796.36
2018-08-10T00:02:27.376Z,796.36
2018-08-10T00:02:31.476Z,796.35
2018-08-10T00:02:35.669Z,796.32
2018-08-10T00:02:39.962Z,796.31
2018-08-10T00:02:44.158Z,796.32
2018-08-10T00:02:48.458Z,796.28
2018-08-10T00:02:52.651Z,796.25
2018-08-10T00:02:56.853Z,796.24
2018-08-10T00:03:01.089Z,796.2
2018-08-10T00:03:05.177Z,796.21
2018-08-10T00:03:09.370Z,796.22
2018-08-10T00:03:13.574Z,796.22
2018-08-10T00:03:17.867Z,796.17
2018-08-10T00:03:22.069Z,796.18
2018-08-10T00:03:26.382Z,796.2
2018-08-10T00:03:30.467Z,796.15
2018-08-10T00:03:34.550Z,796.15
2018-08-10T00:03:38.738Z,796.15
2018-08-10T00:03:43.037Z,796.15
2018-08-10T00:03:47.340Z,796.08
2018-08-10T00:03:51.429Z,796.06
2018-08-10T00:03:55.623Z,796.08
2018-08-10T00:03:59.920Z,796.03
2018-08-10T00:04:04.115Z,796.06
2018-08-10T00:04:08.099Z,796.07
2018-08-10T00:04:12.294Z,796.04
2018-08-10T00:04:16.593Z,796.03
2018-08-10T00:04:20.894Z,796.01
2018-08-10T00:04:24.876Z,796.01
2018-08-10T00:04:28.857Z,796.02
2018-08-10T00:04:33.167Z,795.98
2018-08-10T00:04:37.147Z,795.98
2018-08-10T00:04:41.347Z,795.97
2018-08-10T00:04:45.653Z,795.95
2018-08-10T00:04:49.633Z,795.96
2018-08-10T00:04:53.513Z,795.92
2018-08-10T00:04:57.708Z,795.91
2018-08-10T00:05:01.800Z,795.91
2018-08-10T00:05:05.991Z,795.88
2018-08-10T00:05:10.184Z,795.89
2018-08-10T00:05:14.380Z,795.83
2018-08-10T00:05:18.681Z,795.84
2018-08-10T00:05:23.003Z,795.81
2018-08-10T00:05:26.990Z,795.81
2018-08-10T00:05:31.187Z,795.76
2018-08-10T00:05:35.488Z,795.8
2018-08-10T00:05:39.735Z,795.81
2018-08-10T00:05:44.040Z,795.75
2018-08-10T00:05:48.230Z,795.75
2018-08-10T00:05:52.526Z,795.73
2018-08-10T00:05:56.719Z,795.74
2018-08-10T00:06:01.015Z,795.72
2018-08-10T00:06:05.222Z,795.76
2018-08-10T00:06:09.212Z,795.74
2018-08-10T00:06:13.521Z,795.74
2018-08-10T00:06:17.819Z,795.72
2018-08-10T00:06:22.121Z,795.69
2018-08-10T00:06:26.111Z,795.66
2018-08-10T00:06:30.413Z,795.66
2018-08-10T00:06:34.717Z,795.7
2018-08-10T00:06:38.804Z,795.67
2018-08-10T00:06:43.106Z,795.61
2018-08-10T00:06:47.086Z,795.66
2018-08-10T00:06:51.279Z,795.66
2018-08-10T00:06:55.271Z,795.64
2018-08-10T00:06:59.471Z,795.63
2018-08-10T00:07:03.464Z,795.59
2018-08-10T00:07:07.763Z,795.6
2018-08-10T00:07:11.853Z,795.55
2018-08-10T00:07:15.938Z,795.61
2018-08-10T00:07:20.237Z,795.54
2018-08-10T00:07:24.330Z,795.56
2018-08-10T00:07:28.422Z,795.56
2018-08-10T00:07:32.413Z,795.53
2018-08-10T00:07:36.606Z,795.55
2018-08-10T00:07:40.915Z,795.55
2018-08-10T00:07:45.215Z,795.48
2018-08-10T00:07:49.413Z,795.51
2018-08-10T00:07:53.610Z,795.5
2018-08-10T00:07:57.701Z,795.51
2018-08-10T00:08:01.896Z,795.52
2018-08-10T00:08:06.096Z,795.5
2018-08-10T00:08:10.329Z,795.47
2018-08-10T00:08:14.423Z,795.46
2018-08-10T00:08:18.628Z,795.47
2018-08-10T00:08:22.606Z,795.44
2018-08-10T00:08:26.699Z,795.45
2018-08-10T00:08:30.896Z,795.43
2018-08-10T00:08:34.993Z,795.42
2018-08-10T00:08:39.289Z,795.42
2018-08-10T00:08:43.418Z,795.44
2018-08-10T00:08:47.589Z,795.4
2018-08-10T00:08:51.905Z,795.38
2018-08-10T00:08:56.252Z,795.39
2018-08-10T00:09:00.991Z,795.38
2018-08-10T00:09:05.087Z,795.35
2018-08-10T00:09:09.185Z,795.31
2018-08-10T00:09:13.494Z,795.33
2018-08-10T00:09:17.717Z,795.32
2018-08-10T00:09:22.027Z,795.31
2018-08-10T00:09:26.121Z,795.31
2018-08-10T00:09:30.319Z,795.32
2018-08-10T00:09:34.412Z,795.28
2018-08-10T00:09:38.709Z,795.29
2018-08-10T00:09:42.907Z,795.27
2018-08-10T00:09:47.118Z,795.28
2018-08-10T00:09:51.429Z,795.27
2018-08-10T00:09:55.631Z,795.27
2018-08-10T00:09:59.928Z,795.24
2018-08-10T00:10:03.919Z,795.28
2018-08-10T00:10:08.011Z,795.26
2018-08-10T00:10:12.099Z,795.25
2018-08-10T00:10:16.397Z,795.25
2018-08-10T00:10:20.702Z,795.21
2018-08-10T00:10:25.008Z,795.22
2018-08-10T00:10:29.104Z,795.24
2018-08-10T00:10:33.408Z,795.22
2018-08-10T00:10:37.608Z,795.21
2018-08-10T00:10:41.802Z,795.15
2018-08-10T00:10:45.999Z,795.12
2018-08-10T00:10:50.237Z,795.17
2018-08-10T00:10:54.328Z,795.18
2018-08-10T00:10:58.534Z,795.17
2018-08-10T00:11:02.730Z,795.17
2018-08-10T00:11:07.034Z,795.14
2018-08-10T00:11:11.129Z,795.12
2018-08-10T00:11:15.326Z,795.11
2018-08-10T00:11:19.413Z,795.12
2018-08-10T00:11:23.604Z,795.1
2018-08-10T00:11:27.805Z,795.05
2018-08-10T00:11:31.785Z,795.12
2018-08-10T00:11:35.979Z,795.09
2018-08-10T00:11:40.073Z,795.09
2018-08-10T00:11:44.388Z,795.09
2018-08-10T00:11:48.741Z,795.07
2018-08-10T00:11:52.728Z,795.07
2018-08-10T00:11:56.815Z,795.05
2018-08-10T00:12:01.117Z,795.01
2018-08-10T00:12:05.192Z,795.03
2018-08-10T00:12:09.392Z,795.03
2018-08-10T00:12:13.592Z,794.98
2018-08-10T00:12:17.789Z,794.99
2018-08-10T00:12:21.889Z,794.97
2018-08-10T00:12:26.194Z,795
2018-08-10T00:12:30.500Z,795.01
2018-08-10T00:12:34.704Z,794.99
2018-08-10T00:12:38.906Z,794.99
2018-08-10T00:12:43.104Z,794.91
2018-08-10T00:12:47.191Z,794.96
2018-08-10T00:12:51.491Z,794.95
2018-08-10T00:12:55.583Z,794.95
2018-08-10T00:12:59.781Z,794.88
2018-08-10T00:13:04.108Z,794.87
2018-08-10T00:13:08.201Z,794.88
2018-08-10T00:13:12.502Z,794.85
2018-08-10T00:13:16.698Z,794.89
2018-08-10T00:13:21.000Z,794.84
2018-08-10T00:13:25.200Z,794.84
2018-08-10T00:13:29.399Z,794.82
2018-08-10T00:13:33.715Z,794.8
2018-08-10T00:13:37.922Z,794.76
2018-08-10T00:13:42.233Z,794.76
2018-08-10T00:13:46.438Z,794.78
2018-08-10T00:13:50.636Z,794.75
2018-08-10T00:13:54.955Z,794.77
2018-08-10T00:13:59.254Z,794.72
2018-08-10T00:14:03.461Z,794.75
2018-08-10T00:14:07.648Z,794.7
2018-08-10T00:14:11.843Z,794.71
2018-08-10T00:14:16.150Z,794.65
2018-08-10T00:14:20.489Z,794.63
2018-08-10T00:14:24.684Z,794.61
2018-08-10T00:14:28.558Z,794.58
2018-08-10T00:14:32.895Z,794.54
2018-08-10T00:14:36.883Z,794.52
2018-08-10T00:14:41.188Z,794.53
2018-08-10T00:14:45.274Z,794.58
2018-08-10T00:14:49.576Z,794.46
2018-08-10T00:14:53.659Z,794.52
2018-08-10T00:14:57.746Z,794.46
2018-08-10T00:15:01.863Z,794.49
2018-08-10T00:15:05.961Z,794.46
2018-08-10T00:15:10.265Z,794.45
2018-08-10T00:15:14.574Z,794.42
2018-08-10T00:15:18.772Z,794.4
2018-08-10T00:15:22.994Z,794.42
2018-08-10T00:15:27.088Z,794.34
2018-08-10T00:15:31.281Z,794.36
2018-08-10T00:15:35.484Z,794.37
2018-08-10T00:15:39.785Z,794.31
2018-08-10T00:15:43.981Z,794.29
2018-08-10T00:15:47.968Z,794.28
2018-08-10T00:15:52.161Z,794.28
2018-08-10T00:15:56.251Z,794.3
2018-08-10T00:16:00.341Z,794.26
2018-08-10T00:16:04.642Z,794.22
2018-08-10T00:16:08.834Z,794.22
2018-08-10T00:16:12.817Z,794.19
2018-08-10T00:16:16.796Z,794.16
2018-08-10T00:16:21.000Z,794.16
2018-08-10T00:16:25.297Z,794.15
2018-08-10T00:16:29.391Z,794.18
2018-08-10T00:16:33.688Z,794.18
2018-08-10T00:16:37.879Z,794.17
2018-08-10T00:16:42.180Z,794.17
2018-08-10T00:16:46.491Z,794.12
2018-08-10T00:16:50.811Z,794.14
2018-08-10T00:16:55.112Z,794.13
2018-08-10T00:16:59.429Z,794.13
2018-08-10T00:17:03.517Z,794.12
2018-08-10T00:17:07.823Z,794.1
2018-08-10T00:17:12.022Z,794.12
2018-08-10T00:17:16.233Z,794.07
2018-08-10T00:17:20.433Z,794.08
2018-08-10T00:17:24.734Z,794.04
2018-08-10T00:17:28.928Z,794.03
2018-08-10T00:17:33.228Z,794.05
2018-08-10T00:17:37.535Z,794
2018-08-10T00:17:41.842Z,793.95
2018-08-10T00:17:46.036Z,793.99
2018-08-10T00:17:50.339Z,793.96
2018-08-10T00:17:54.432Z,793.96
2018-08-10T00:17:58.623Z,793.94
2018-08-10T00:18:02.867Z,793.94
2018-08-10T00:18:07.062Z,793.96
2018-08-10T00:18:11.356Z,793.9
2018-08-10T00:18:15.463Z,793.91
2018-08-10T00:18:19.656Z,793.9
2018-08-10T00:18:23.968Z,793.87
2018-08-10T00:18:28.061Z,793.86
2018-08-10T00:18:32.266Z,793.85
2018-08-10T00:18:36.458Z,793.84
2018-08-10T00:18:40.441Z,793.83
2018-08-10T00:18:44.745Z,793.8
2018-08-10T00:18:48.939Z,793.82
2018-08-10T00:18:53.131Z,793.82
2018-08-10T00:18:57.433Z,793.77
2018-08-10T00:19:01.530Z,793.78
2018-08-10T00:19:05.621Z,793.76
2018-08-10T00:19:09.820Z,793.75
2018-08-10T00:19:14.119Z,793.77
2018-08-10T00:19:18.316Z,793.74
2018-08-10T00:19:22.638Z,793.72
2018-08-10T00:19:26.976Z,793.71
2018-08-10T00:19:31.076Z,793.67
2018-08-10T00:19:35.277Z,793.66
2018-08-10T00:19:39.156Z,793.66
2018-08-10T00:19:43.348Z,793.68
2018-08-10T00:19:47.547Z,793.66
2018-08-10T00:19:51.753Z,793.66
2018-08-10T00:19:55.842Z,793.64
2018-08-10T00:20:00.049Z,793.61
2018-08-10T00:20:04.086Z,793.57
2018-08-10T00:20:08.072Z,793.59
2018-08-10T00:20:12.292Z,793.59
2018-08-10T00:20:16.612Z,793.56
2018-08-10T00:20:20.807Z,793.54
2018-08-10T00:20:25.109Z,793.5
2018-08-10T00:20:29.303Z,793.5
2018-08-10T00:20:33.496Z,793.54
2018-08-10T00:20:37.695Z,793.5
2018-08-10T00:20:41.994Z,793.5
2018-08-10T00:20:46.091Z,793.46
2018-08-10T00:20:50.296Z,793.46
2018-08-10T00:20:54.398Z,793.48
2018-08-10T00:20:58.699Z,793.45
2018-08-10T00:21:02.685Z,793.4
2018-08-10T00:21:06.883Z,793.41
2018-08-10T00:21:11.081Z,793.44
2018-08-10T00:21:15.279Z,793.38
2018-08-10T00:21:19.580Z,793.38
2018-08-10T00:21:23.894Z,793.39
2018-08-10T00:21:28.098Z,793.41
2018-08-10T00:21:32.083Z,793.39
2018-08-10T00:21:36.385Z,793.38
2018-08-10T00:21:40.477Z,793.39
2018-08-10T00:21:44.680Z,793.38
2018-08-10T00:21:48.985Z,793.33
2018-08-10T00:21:53.295Z,793.35
2018-08-10T00:21:57.488Z,793.4
2018-08-10T00:22:01.693Z,793.39
2018-08-10T00:22:05.676Z,793.38
2018-08-10T00:22:09.870Z,793.36
2018-08-10T00:22:14.176Z,793.37
2018-08-10T00:22:18.373Z,793.35
2018-08-10T00:22:22.566Z,793.31
2018-08-10T00:22:26.653Z,793.34
2018-08-10T00:22:30.849Z,793.36
2018-08-10T00:22:35.050Z,793.33
2018-08-10T00:22:39.367Z,793.29
2018-08-10T00:22:43.669Z,793.3
2018-08-10T00:22:47.870Z,793.31
2018-08-10T00:22:52.185Z,793.3
2018-08-10T00:22:56.496Z,793.34
2018-08-10T00:23:00.802Z,793.32
2018-08-10T00:23:04.895Z,793.35
2018-08-10T00:23:08.877Z,793.37
2018-08-10T00:23:13.085Z,793.36
2018-08-10T00:23:17.279Z,793.34
2018-08-10T00:23:21.583Z,793.33
2018-08-10T00:23:25.899Z,793.33
2018-08-10T00:23:30.198Z,793.35
2018-08-10T00:23:34.499Z,793.35
2018-08-10T00:23:38.488Z,793.32
2018-08-10T00:23:42.687Z,793.27
2018-08-10T00:23:46.887Z,793.34
2018-08-10T00:23:51.191Z,793.29
2018-08-10T00:23:55.390Z,793.28
2018-08-10T00:23:59.588Z,793.29
2018-08-10T00:24:03.794Z,793.29
2018-08-10T00:24:07.986Z,793.29
2018-08-10T00:24:12.186Z,793.29
2018-08-10T00:24:16.487Z,793.3
2018-08-10T00:24:20.788Z,793.29
2018-08-10T00:24:24.988Z,793.28
2018-08-10T00:24:29.079Z,793.31
2018-08-10T00:24:33.434Z,793.29
2018-08-10T00:24:37.309Z,793.27
2018-08-10T00:24:41.520Z,793.26
2018-08-10T00:24:45.614Z,793.29
2018-08-10T00:24:49.918Z,793.28
2018-08-10T00:24:54.221Z,793.28
2018-08-10T00:24:58.416Z,793.2
2018-08-10T00:25:02.607Z,793.22
2018-08-10T00:25:06.694Z,793.24
2018-08-10T00:25:10.789Z,793.2
2018-08-10T00:25:14.992Z,793.22
2018-08-10T00:25:19.189Z,793.21
2018-08-10T00:25:23.382Z,793.22
2018-08-10T00:25:27.475Z,793.21
2018-08-10T00:25:31.781Z,793.22
2018-08-10T00:25:36.134Z,793.17
2018-08-10T00:25:40.448Z,793.19
2018-08-10T00:25:44.641Z,793.15
2018-08-10T00:25:48.730Z,793.16
2018-08-10T00:25:53.030Z,793.14
2018-08-10T00:25:57.226Z,793.08
2018-08-10T00:26:01.314Z,793.15
2018-08-10T00:26:05.302Z,793.14
2018-08-10T00:26:09.597Z,793.13
2018-08-10T00:26:13.686Z,793.12
2018-08-10T00:26:17.883Z,793.16
2018-08-10T00:26:22.082Z,793.14
2018-08-10T00:26:26.171Z,793.15
2018-08-10T00:26:30.258Z,793.1
2018-08-10T00:26:34.453Z,793.11
2018-08-10T00:26:38.652Z,793.15
2018-08-10T00:26:42.960Z,793.15
2018-08-10T00:26:47.059Z,793.1
2018-08-10T00:26:51.254Z,793.12
2018-08-10T00:26:55.240Z,793.14
2018-08-10T00:26:59.435Z,793.11
2018-08-10T00:27:03.753Z,793.14
2018-08-10T00:27:07.845Z,793.09
2018-08-10T00:27:12.149Z,793.09
2018-08-10T00:27:16.343Z,793.07
2018-08-10T00:27:20.536Z,793.07
2018-08-10T00:27:24.726Z,793.08
2018-08-10T00:27:29.031Z,793.07
2018-08-10T00:27:33.123Z,793.07
2018-08-10T00:27:37.112Z,793.08
2018-08-10T00:27:41.309Z,793.05
2018-08-10T00:27:45.611Z,793.05
2018-08-10T00:27:49.810Z,793.08
2018-08-10T00:27:53.903Z,793.08
2018-08-10T00:27:58.099Z,793.09
2018-08-10T00:28:02.302Z,793.1
2018-08-10T00:28:06.282Z,793.07
2018-08-10T00:28:10.535Z,793.1
2018-08-10T00:28:14.623Z,793.09
2018-08-10T00:28:18.924Z,793.09
2018-08-10T00:28:23.225Z,793.11
2018-08-10T00:28:27.532Z,793.12
2018-08-10T00:28:31.731Z,793.15
2018-08-10T00:28:36.044Z,793.12
2018-08-10T00:28:40.144Z,793.12
2018-08-10T00:28:44.339Z,793.12
2018-08-10T00:28:48.644Z,793.07
2018-08-10T00:28:52.947Z,793.1
2018-08-10T00:28:57.253Z,793.04
2018-08-10T00:29:01.445Z,793.07
2018-08-10T00:29:05.428Z,793.08
2018-08-10T00:29:09.728Z,793.09
2018-08-10T00:29:13.923Z,793.05
2018-08-10T00:29:18.131Z,793.05
2018-08-10T00:29:22.439Z,793.09
2018-08-10T00:29:26.631Z,793.05
2018-08-10T00:29:30.926Z,793.08
2018-08-10T00:29:35.018Z,793.08
2018-08-10T00:29:39.325Z,793.08
2018-08-10T00:29:43.519Z,793.08
2018-08-10T00:29:47.818Z,793.09
2018-08-10T00:29:52.011Z,793.07
2018-08-10T00:29:56.204Z,793.11
2018-08-10T00:30:00.400Z,793.07
2018-08-10T00:30:04.387Z,793.04
2018-08-10T00:30:08.478Z,793.06
2018-08-10T00:30:12.562Z,793.1
2018-08-10T00:30:16.767Z,793.09
2018-08-10T00:30:20.755Z,793.08
2018-08-10T00:30:24.955Z,793.11
2018-08-10T00:30:29.263Z,793.1
2018-08-10T00:30:33.458Z,793.04
2018-08-10T00:30:37.649Z,793.1
2018-08-10T00:30:41.946Z,793.11
2018-08-10T00:30:46.034Z,793.1
2018-08-10T00:30:50.129Z,793.09
2018-08-10T00:30:54.438Z,793.08
2018-08-10T00:30:58.632Z,793.08
2018-08-10T00:31:02.837Z,793.11
2018-08-10T00:31:06.926Z,793.08
2018-08-10T00:31:11.225Z,793.09
2018-08-10T00:31:15.421Z,793.1
2018-08-10T00:31:19.616Z,793.08
2018-08-10T00:31:23.864Z,793.13
2018-08-10T00:31:28.167Z,793.15
2018-08-10T00:31:32.165Z,793.11
2018-08-10T00:31:36.486Z,793.11
2018-08-10T00:31:40.797Z,793.1
2018-08-10T00:31:44.987Z,793.12
2018-08-10T00:31:49.287Z,793.12
2018-08-10T00:31:53.583Z,793.11
2018-08-10T00:31:57.889Z,793.12
2018-08-10T00:32:02.193Z,793.13
2018-08-10T00:32:06.499Z,793.13
2018-08-10T00:32:10.592Z,793.14
2018-08-10T00:32:14.789Z,793.14
2018-08-10T00:32:18.987Z,793.17
2018-08-10T00:32:23.180Z,793.14
2018-08-10T00:32:27.378Z,793.13
2018-08-10T00:32:31.682Z,793.13
2018-08-10T00:32:35.784Z,793.14
2018-08-10T00:32:40.084Z,793.13
2018-08-10T00:32:44.284Z,793.13
2018-08-10T00:32:48.630Z,793.14
2018-08-10T00:32:52.828Z,793.16
2018-08-10T00:32:57.124Z,793.18
2018-08-10T00:33:01.434Z,793.13
2018-08-10T00:33:05.656Z,793.15
2018-08-10T00:33:09.964Z,793.1
2018-08-10T00:33:14.159Z,793.17
2018-08-10T00:33:18.458Z,793.17
2018-08-10T00:33:22.653Z,793.12
2018-08-10T00:33:26.951Z,793.15
2018-08-10T00:33:31.156Z,793.12
2018-08-10T00:33:35.357Z,793.17
2018-08-10T00:33:39.559Z,793.14
2018-08-10T00:33:43.868Z,793.16
2018-08-10T00:33:48.063Z,793.16
2018-08-10T00:33:52.258Z,793.14
2018-08-10T00:33:56.566Z,793.15
2018-08-10T00:34:00.762Z,793.11
2018-08-10T00:34:04.894Z,793.11
2018-08-10T00:34:09.199Z,793.13
2018-08-10T00:34:13.402Z,793.12
2018-08-10T00:34:17.596Z,793.13
2018-08-10T00:34:21.789Z,793.09
2018-08-10T00:34:25.772Z,793.1
2018-08-10T00:34:29.862Z,793.13
2018-08-10T00:34:34.061Z,793.12
2018-08-10T00:34:38.146Z,793.13
2018-08-10T00:34:42.344Z,793.1
2018-08-10T00:34:46.547Z,793.11
2018-08-10T00:34:50.745Z,793.07
2018-08-10T00:34:54.940Z,793.13
2018-08-10T00:34:59.144Z,793.14
2018-08-10T00:35:03.455Z,793.12
2018-08-10T00:35:07.649Z,793.11
2018-08-10T00:35:11.891Z,793.14
2018-08-10T00:35:16.213Z,793.11
2018-08-10T00:35:20.520Z,793.1
2018-08-10T00:35:24.724Z,793.08
2018-08-10T00:35:29.025Z,793.09
2018-08-10T00:35:33.220Z,793.1
2018-08-10T00:35:37.431Z,793.09
2018-08-10T00:35:41.629Z,793.1
2018-08-10T00:35:45.935Z,793.11
2018-08-10T00:35:50.232Z,793.13
2018-08-10T00:35:54.430Z,793.07
2018-08-10T00:35:58.415Z,793.11
2018-08-10T00:36:02.505Z,793.05
2018-08-10T00:36:06.702Z,793.08
2018-08-10T00:36:10.797Z,793.08
2018-08-10T00:36:14.890Z,793.13
2018-08-10T00:36:19.084Z,793.11
2018-08-10T00:36:23.280Z,793.06
2018-08-10T00:36:27.488Z,793.11
2018-08-10T00:36:31.685Z,793.1
2018-08-10T00:36:35.879Z,793.12
2018-08-10T00:36:39.980Z,793.13
2018-08-10T00:36:44.277Z,793.14
2018-08-10T00:36:48.604Z,793.13
2018-08-10T00:36:52.699Z,793.09
2018-08-10T00:36:56.893Z,793.1
2018-08-10T00:37:01.089Z,793.12
2018-08-10T00:37:05.168Z,793.12
2018-08-10T00:37:09.464Z,793.12
2018-08-10T00:37:13.663Z,793.13
2018-08-10T00:37:17.858Z,793.06
2018-08-10T00:37:21.945Z,793.11
2018-08-10T00:37:26.168Z,793.09
2018-08-10T00:37:30.469Z,793.13
2018-08-10T00:37:34.669Z,793.07
2018-08-10T00:37:38.865Z,793.09
2018-08-10T00:37:43.061Z,793.07
2018-08-10T00:37:47.362Z,793.04
2018-08-10T00:37:51.658Z,793.08
2018-08-10T00:37:55.637Z,793.07
2018-08-10T00:37:59.945Z,793.08
2018-08-10T00:38:04.144Z,793.07
2018-08-10T00:38:08.344Z,793.1
2018-08-10T00:38:12.441Z,793.07
2018-08-10T00:38:16.755Z,793.07
2018-08-10T00:38:20.947Z,793.07
2018-08-10T00:38:25.138Z,793.07
2018-08-10T00:38:29.226Z,793.11
2018-08-10T00:38:33.423Z,793.04
2018-08-10T00:38:37.511Z,793.09
2018-08-10T00:38:41.600Z,793.1
2018-08-10T00:38:45.590Z,793.1
2018-08-10T00:38:49.787Z,793.08
2018-08-10T00:38:53.871Z,793.11
2018-08-10T00:38:58.062Z,793.13
2018-08-10T00:39:01.942Z,793.11
2018-08-10T00:39:06.192Z,793.1
2018-08-10T00:39:10.284Z,793.06
2018-08-10T00:39:14.482Z,793.12
2018-08-10T00:39:18.784Z,793.12
2018-08-10T00:39:22.976Z,793.13
2018-08-10T00:39:26.967Z,793.11
2018-08-10T00:39:31.056Z,793.11
2018-08-10T00:39:35.376Z,793.12
2018-08-10T00:39:39.569Z,793.11
2018-08-10T00:39:43.766Z,793.09
2018-08-10T00:39:47.960Z,793.13
2018-08-10T00:39:52.154Z,793.13
2018-08-10T00:39:56.357Z,793.14
2018-08-10T00:40:00.665Z,793.13
2018-08-10T00:40:04.652Z,793.11
2018-08-10T00:40:08.851Z,793.13
2018-08-10T00:40:13.044Z,793.13
2018-08-10T00:40:17.245Z,793.09
2018-08-10T00:40:21.227Z,793.11
2018-08-10T00:40:25.423Z,793.1
2018-08-10T00:40:29.623Z,793.16
2018-08-10T00:40:33.923Z,793.07
2018-08-10T00:40:38.118Z,793.11
2018-08-10T00:40:42.428Z,793.11
2018-08-10T00:40:46.622Z,793.1
2018-08-10T00:40:50.817Z,793.12
2018-08-10T00:40:55.118Z,793.1
2018-08-10T00:40:59.208Z,793.13
2018-08-10T00:41:03.452Z,793.12
2018-08-10T00:41:07.541Z,793.15
2018-08-10T00:41:11.635Z,793.09
2018-08-10T00:41:15.938Z,793.14
2018-08-10T00:41:20.134Z,793.18
2018-08-10T00:41:24.454Z,793.14
2018-08-10T00:41:28.659Z,793.15
2018-08-10T00:41:32.855Z,793.14
2018-08-10T00:41:36.947Z,793.15
2018-08-10T00:41:41.061Z,793.1
2018-08-10T00:41:45.157Z,793.16
2018-08-10T00:41:49.246Z,793.14
2018-08-10T00:41:53.561Z,793.15
2018-08-10T00:41:57.866Z,793.07
2018-08-10T00:42:02.306Z,793.08
2018-08-10T00:42:06.290Z,793.14
2018-08-10T00:42:10.594Z,793.16
2018-08-10T00:42:14.789Z,793.14
2018-08-10T00:42:19.040Z,793.2
2018-08-10T00:42:23.244Z,793.11
2018-08-10T00:42:27.437Z,793.18
2018-08-10T00:42:31.631Z,793.2
2018-08-10T00:42:35.619Z,793.19
2018-08-10T00:42:39.816Z,793.2
2018-08-10T00:42:44.113Z,793.17
2018-08-10T00:42:48.320Z,793.16
2018-08-10T00:42:52.532Z,793.12
2018-08-10T00:42:56.836Z,793.14
2018-08-10T00:43:01.036Z,793.19
2018-08-10T00:43:05.015Z,793.18
2018-08-10T00:43:09.208Z,793.2
2018-08-10T00:43:13.300Z,793.19
2018-08-10T00:43:17.621Z,793.2
2018-08-10T00:43:21.823Z,793.2
2018-08-10T00:43:26.022Z,793.17
2018-08-10T00:43:30.334Z,793.22
2018-08-10T00:43:34.325Z,793.2
2018-08-10T00:43:38.625Z,793.17
2018-08-10T00:43:42.933Z,793.21
2018-08-10T00:43:47.241Z,793.22
2018-08-10T00:43:51.539Z,793.23
2018-08-10T00:43:55.866Z,793.22
2018-08-10T00:44:00.058Z,793.25
2018-08-10T00:44:03.934Z,793.23
2018-08-10T00:44:08.127Z,793.22
2018-08-10T00:44:12.212Z,793.19
2018-08-10T00:44:16.194Z,793.25
2018-08-10T00:44:20.285Z,793.24
2018-08-10T00:44:24.587Z,793.25
2018-08-10T00:44:28.784Z,793.24
2018-08-10T00:44:32.992Z,793.23
2018-08-10T00:44:37.187Z,793.24
2018-08-10T00:44:41.170Z,793.26
2018-08-10T00:44:45.464Z,793.25
2018-08-10T00:44:49.768Z,793.25
2018-08-10T00:44:54.083Z,793.24
2018-08-10T00:44:58.276Z,793.23
2018-08-10T00:45:02.370Z,793.26
2018-08-10T00:45:06.456Z,793.25
2018-08-10T00:45:10.552Z,793.23
2018-08-10T00:45:14.749Z,793.26
2018-08-10T00:45:18.847Z,793.27
2018-08-10T00:45:22.943Z,793.26
2018-08-10T00:45:27.247Z,793.3
2018-08-10T00:45:31.558Z,793.3
2018-08-10T00:45:35.868Z,793.26
2018-08-10T00:45:40.069Z,793.26
2018-08-10T00:45:44.275Z,793.27
2018-08-10T00:45:48.481Z,793.27
2018-08-10T00:45:52.788Z,793.29
2018-08-10T00:45:56.881Z,793.28
2018-08-10T00:46:00.967Z,793.25
2018-08-10T00:46:04.949Z,793.27
2018-08-10T00:46:09.060Z,793.23
2018-08-10T00:46:13.253Z,793.26
2018-08-10T00:46:17.446Z,793.29
2018-08-10T00:46:21.638Z,793.28
2018-08-10T00:46:25.725Z,793.27
2018-08-10T00:46:30.030Z,793.26
2018-08-10T00:46:34.015Z,793.26
2018-08-10T00:46:38.000Z,793.29
2018-08-10T00:46:41.983Z,793.29
2018-08-10T00:46:46.184Z,793.28
2018-08-10T00:46:50.277Z,793.27
2018-08-10T00:46:54.473Z,793.31
2018-08-10T00:46:58.670Z,793.27
2018-08-10T00:47:02.860Z,793.28
2018-08-10T00:47:07.053Z,793.27
2018-08-10T00:47:11.249Z,793.28
2018-08-10T00:47:15.552Z,793.27
2018-08-10T00:47:19.636Z,793.27
2018-08-10T00:47:23.615Z,793.27
2018-08-10T00:47:27.826Z,793.32
2018-08-10T00:47:32.027Z,793.3
2018-08-10T00:47:36.217Z,793.29
2018-08-10T00:47:40.199Z,793.31
2018-08-10T00:47:44.503Z,793.32
2018-08-10T00:47:48.718Z,793.33
2018-08-10T00:47:52.913Z,793.33
2018-08-10T00:47:57.005Z,793.31
2018-08-10T00:48:01.312Z,793.3
2018-08-10T00:48:05.507Z,793.29
2018-08-10T00:48:09.706Z,793.32
2018-08-10T00:48:13.687Z,793.28
2018-08-10T00:48:17.775Z,793.29
2018-08-10T00:48:21.860Z,793.3
2018-08-10T00:48:26.056Z,793.31
2018-08-10T00:48:30.254Z,793.32
2018-08-10T00:48:34.445Z,793.33
2018-08-10T00:48:38.427Z,793.32
2018-08-10T00:48:42.621Z,793.33
2018-08-10T00:48:46.814Z,793.33
2018-08-10T00:48:51.008Z,793.33
2018-08-10T00:48:55.203Z,793.34
2018-08-10T00:48:59.506Z,793.34
2018-08-10T00:49:03.486Z,793.34
2018-08-10T00:49:07.787Z,793.35
2018-08-10T00:49:11.992Z,793.3
2018-08-10T00:49:16.193Z,793.32
2018-08-10T00:49:20.402Z,793.34
2018-08-10T00:49:24.488Z,793.39
2018-08-10T00:49:28.474Z,793.36
2018-08-10T00:49:32.774Z,793.35
2018-08-10T00:49:37.085Z,793.34
2018-08-10T00:49:41.172Z,793.34
2018-08-10T00:49:45.480Z,793.36
2018-08-10T00:49:49.570Z,793.38
2018-08-10T00:49:53.661Z,793.37
2018-08-10T00:49:57.853Z,793.37
2018-08-10T00:50:01.992Z,793.35
2018-08-10T00:50:06.012Z,793.33
2018-08-10T00:50:10.215Z,793.36
2018-08-10T00:50:14.308Z,793.38
2018-08-10T00:50:18.617Z,793.39
2018-08-10T00:50:22.809Z,793.39
2018-08-10T00:50:27.009Z,793.41
2018-08-10T00:50:31.312Z,793.4
2018-08-10T00:50:35.504Z,793.4
2018-08-10T00:50:39.483Z,793.36
2018-08-10T00:50:43.571Z,793.4
2018-08-10T00:50:47.872Z,793.41
2018-08-10T00:50:52.083Z,793.41
2018-08-10T00:50:56.389Z,793.35
2018-08-10T00:51:00.584Z,793.37
2018-08-10T00:51:04.788Z,793.42
2018-08-10T00:51:08.882Z,793.4
2018-08-10T00:51:13.015Z,793.4
2018-08-10T00:51:17.319Z,793.37
2018-08-10T00:51:21.509Z,793.44
2018-08-10T00:51:25.596Z,793.4
2018-08-10T00:51:29.901Z,793.43
2018-08-10T00:51:34.090Z,793.42
2018-08-10T00:51:38.182Z,793.43
2018-08-10T00:51:42.494Z,793.45
2018-08-10T00:51:46.802Z,793.43
2018-08-10T00:51:51.005Z,793.42
2018-08-10T00:51:55.093Z,793.38
2018-08-10T00:51:59.179Z,793.42
2018-08-10T00:52:03.264Z,793.42
2018-08-10T00:52:07.462Z,793.45
2018-08-10T00:52:11.658Z,793.41
2018-08-10T00:52:15.747Z,793.43
2018-08-10T00:52:20.059Z,793.43
2018-08-10T00:52:23.830Z,793.38
2018-08-10T00:52:28.042Z,793.38